createdAt,value
2017-12-04T00:00:48.409Z,5.38
2017-12-04T00:01:48.466Z,5.43
2017-12-04T00:03:41.460Z,5.47
2017-12-04T00:04:41.496Z,5.56
2017-12-04T00:06:34.471Z,5.50
2017-12-04T00:07:34.529Z,5.48
2017-12-04T00:09:27.523Z,5.48
2017-12-04T00:10:27.562Z,5.48
2017-12-04T00:12:20.535Z,5.50
2017-12-04T00:13:20.591Z,5.47
2017-12-04T00:15:13.585Z,5.44
2017-12-04T00:16:13.621Z,5.41
2017-12-04T00:18:06.624Z,5.48
2017-12-04T00:19:06.660Z,5.41
2017-12-04T00:20:59.641Z,5.44
2017-12-04T00:21:59.693Z,5.50
2017-12-04T00:23:52.688Z,5.51
2017-12-04T00:24:52.725Z,5.54
2017-12-04T00:26:45.699Z,5.46
2017-12-04T00:27:45.756Z,5.44
2017-12-04T00:29:38.751Z,5.62
2017-12-04T00:30:38.787Z,5.56
2017-12-04T00:32:31.769Z,5.57
2017-12-04T00:33:31.821Z,5.57
2017-12-04T00:35:24.819Z,5.59
2017-12-04T00:36:24.855Z,5.57
2017-12-04T00:38:17.852Z,5.50
2017-12-04T00:39:17.887Z,5.53
2017-12-04T00:41:10.864Z,5.64
2017-12-04T00:42:10.917Z,5.53
2017-12-04T00:44:03.915Z,5.51
2017-12-04T00:45:03.949Z,5.51
2017-12-04T00:46:56.931Z,5.65
2017-12-04T00:47:56.983Z,5.65
2017-12-04T00:49:49.982Z,5.54
2017-12-04T00:50:50.017Z,5.61
2017-12-04T00:52:42.993Z,5.56
2017-12-04T00:53:43.049Z,5.64
2017-12-04T00:55:36.046Z,5.57
2017-12-04T00:56:36.082Z,5.62
2017-12-04T00:58:29.078Z,5.64
2017-12-04T00:59:29.115Z,5.66
2017-12-04T01:01:22.089Z,5.65
2017-12-04T01:02:22.147Z,5.59
2017-12-04T01:04:15.143Z,5.75
2017-12-04T01:05:15.179Z,5.71
2017-12-04T01:07:08.161Z,5.72
2017-12-04T01:08:08.212Z,5.69
2017-12-04T01:10:01.210Z,5.71
2017-12-04T01:11:01.246Z,5.69
2017-12-04T01:12:54.220Z,5.71
2017-12-04T01:13:54.277Z,5.68
2017-12-04T01:15:47.273Z,5.72
2017-12-04T01:16:47.309Z,5.72
2017-12-04T01:18:40.303Z,5.72
2017-12-04T01:19:40.340Z,5.75
2017-12-04T01:21:33.323Z,5.69
2017-12-04T01:22:33.370Z,5.68
2017-12-04T01:24:26.367Z,5.69
2017-12-04T01:25:26.404Z,5.68
2017-12-04T01:27:19.380Z,5.73
2017-12-04T01:28:19.433Z,5.68
2017-12-04T01:30:12.436Z,5.72
2017-12-04T01:31:12.472Z,5.69
2017-12-04T01:33:05.450Z,5.72
2017-12-04T01:34:05.503Z,5.79
2017-12-04T01:35:58.509Z,5.71
2017-12-04T01:36:58.545Z,5.76
2017-12-04T01:38:51.541Z,5.76
2017-12-04T01:39:51.581Z,5.64
2017-12-04T01:41:44.553Z,5.71
2017-12-04T01:42:44.607Z,5.72
2017-12-04T01:44:37.603Z,5.72
2017-12-04T01:45:37.644Z,5.62
2017-12-04T01:47:30.635Z,5.64
2017-12-04T01:48:30.676Z,5.62
2017-12-04T01:50:23.669Z,5.66
2017-12-04T01:51:23.706Z,5.62
2017-12-04T01:53:16.689Z,5.72
2017-12-04T01:54:16.741Z,5.65
2017-12-04T01:56:09.743Z,5.72
2017-12-04T01:57:09.777Z,5.65
2017-12-04T01:59:02.776Z,5.61
2017-12-04T02:00:02.810Z,5.65
2017-12-04T02:01:55.785Z,5.69
2017-12-04T02:02:55.842Z,5.69
2017-12-04T02:04:48.842Z,5.72
2017-12-04T02:05:48.875Z,5.64
2017-12-04T02:07:41.858Z,5.64
2017-12-04T02:08:41.918Z,5.51
2017-12-04T02:10:34.909Z,5.61
2017-12-04T02:11:34.947Z,5.62
2017-12-04T02:13:27.929Z,5.54
2017-12-04T02:14:27.981Z,5.65
2017-12-04T02:16:20.979Z,5.66
2017-12-04T02:17:21.015Z,5.59
2017-12-04T02:19:14.009Z,5.61
2017-12-04T02:20:14.047Z,5.71
2017-12-04T02:22:07.022Z,5.61
2017-12-04T02:23:07.076Z,5.66
2017-12-04T02:25:00.072Z,5.65
2017-12-04T02:26:00.108Z,5.65
2017-12-04T02:27:53.086Z,5.65
2017-12-04T02:28:53.140Z,5.64
2017-12-04T02:30:46.137Z,5.66
2017-12-04T02:31:46.171Z,5.65
2017-12-04T02:33:39.155Z,5.66
2017-12-04T02:34:39.204Z,5.65
2017-12-04T02:36:32.201Z,5.72
2017-12-04T02:37:32.236Z,5.73
2017-12-04T02:39:25.260Z,5.72
2017-12-04T02:40:25.268Z,5.71
2017-12-04T02:42:18.243Z,5.76
2017-12-04T02:43:18.298Z,5.79
2017-12-04T02:45:11.297Z,5.80
2017-12-04T02:46:11.334Z,5.89
2017-12-04T02:48:04.309Z,5.84
2017-12-04T02:49:04.366Z,5.84
2017-12-04T02:50:57.361Z,5.90
2017-12-04T02:51:57.397Z,5.83
2017-12-04T02:53:50.374Z,5.84
2017-12-04T02:54:50.430Z,5.87
2017-12-04T02:56:43.426Z,5.86
2017-12-04T02:57:43.463Z,5.83
2017-12-04T02:59:36.461Z,5.90
2017-12-04T03:00:36.498Z,5.89
2017-12-04T03:02:29.473Z,5.84
2017-12-04T03:03:29.531Z,5.82
2017-12-04T03:05:22.527Z,5.90
2017-12-04T03:06:22.563Z,5.93
2017-12-04T03:08:15.547Z,5.87
2017-12-04T03:09:15.602Z,5.75
2017-12-04T03:11:08.604Z,5.87
2017-12-04T03:12:08.635Z,5.80
2017-12-04T03:14:01.617Z,5.87
2017-12-04T03:15:01.670Z,5.83
2017-12-04T03:16:54.665Z,5.84
2017-12-04T03:17:54.702Z,5.86
2017-12-04T03:19:47.696Z,5.89
2017-12-04T03:20:47.734Z,5.76
2017-12-04T03:22:41.217Z,5.76
2017-12-04T03:23:41.273Z,5.83
2017-12-04T03:25:34.277Z,5.79
2017-12-04T03:26:34.307Z,5.76
2017-12-04T03:28:27.281Z,5.83
2017-12-04T03:29:27.339Z,5.82
2017-12-04T03:31:20.337Z,5.73
2017-12-04T03:32:20.372Z,5.90
2017-12-04T03:34:13.346Z,5.76
2017-12-04T03:35:13.404Z,5.80
2017-12-04T03:37:06.402Z,5.87
2017-12-04T03:38:06.438Z,5.83
2017-12-04T03:39:59.433Z,5.73
2017-12-04T03:40:59.470Z,5.76
2017-12-04T03:42:52.446Z,5.65
2017-12-04T03:43:52.504Z,5.72
2017-12-04T03:45:45.497Z,5.76
2017-12-04T03:46:45.534Z,5.83
2017-12-04T03:48:38.509Z,5.84
2017-12-04T03:49:38.564Z,5.72
2017-12-04T03:51:31.558Z,5.79
2017-12-04T03:52:31.596Z,5.86
2017-12-04T03:54:24.592Z,5.89
2017-12-04T03:55:24.627Z,5.86
2017-12-04T03:57:17.622Z,5.90
2017-12-04T03:58:17.658Z,5.86
2017-12-04T04:00:10.654Z,5.87
2017-12-04T04:01:10.689Z,5.97
2017-12-04T04:03:03.667Z,5.91
2017-12-04T04:04:03.723Z,5.86
2017-12-04T04:05:56.718Z,5.94
2017-12-04T04:06:56.756Z,5.93
2017-12-04T04:08:49.730Z,5.97
2017-12-04T04:09:49.786Z,5.97
2017-12-04T04:11:42.780Z,6.07
2017-12-04T04:12:42.816Z,5.90
2017-12-04T04:14:35.813Z,6.04
2017-12-04T04:15:35.848Z,6.12
2017-12-04T04:17:28.825Z,6.09
2017-12-04T04:18:28.882Z,6.01
2017-12-04T04:20:21.876Z,6.02
2017-12-04T04:21:21.914Z,6.05
2017-12-04T04:23:15.394Z,6.05
2017-12-04T04:24:15.452Z,6.02
2017-12-04T04:26:08.447Z,6.05
2017-12-04T04:27:08.484Z,5.90
2017-12-04T04:29:01.459Z,5.90
2017-12-04T04:30:01.515Z,5.86
2017-12-04T04:31:54.509Z,5.89
2017-12-04T04:32:54.550Z,5.90
2017-12-04T04:34:47.545Z,6.02
2017-12-04T04:35:47.581Z,5.98
2017-12-04T04:37:40.564Z,5.94
2017-12-04T04:38:40.613Z,6.02
2017-12-04T04:40:33.608Z,6.12
2017-12-04T04:41:33.644Z,6.11
2017-12-04T04:43:26.618Z,6.08
2017-12-04T04:44:26.675Z,6.04
2017-12-04T04:46:19.673Z,6.04
2017-12-04T04:47:19.708Z,6.08
2017-12-04T04:49:12.685Z,6.02
2017-12-04T04:50:12.741Z,5.91
2017-12-04T04:52:05.736Z,5.93
2017-12-04T04:53:05.773Z,6.04
2017-12-04T04:54:58.766Z,6.09
2017-12-04T04:55:58.802Z,6.11
2017-12-04T04:57:51.785Z,6.04
2017-12-04T04:58:51.836Z,6.11
2017-12-04T05:00:44.833Z,6.08
2017-12-04T05:01:44.870Z,6.07
2017-12-04T05:03:37.844Z,6.09
2017-12-04T05:04:37.902Z,6.08
2017-12-04T05:06:30.896Z,6.05
2017-12-04T05:07:30.931Z,6.05
2017-12-04T05:09:23.906Z,6.05
2017-12-04T05:10:23.961Z,6.09
2017-12-04T05:12:16.958Z,6.12
2017-12-04T05:13:16.993Z,6.09
2017-12-04T05:15:09.991Z,6.07
2017-12-04T05:16:10.026Z,6.24
2017-12-04T05:18:03.009Z,6.22
2017-12-04T05:19:03.060Z,6.24
2017-12-04T05:20:56.055Z,6.22
2017-12-04T05:21:56.093Z,6.20
2017-12-04T05:23:49.069Z,6.22
2017-12-04T05:24:49.124Z,6.17
2017-12-04T05:26:42.174Z,6.17
2017-12-04T05:27:42.157Z,6.12
2017-12-04T05:29:35.148Z,6.22
2017-12-04T05:30:35.206Z,6.17
2017-12-04T05:32:28.204Z,6.24
2017-12-04T05:33:28.237Z,6.24
2017-12-04T05:35:21.237Z,6.22
2017-12-04T05:36:21.273Z,6.22
2017-12-04T05:38:14.249Z,6.26
2017-12-04T05:39:14.304Z,6.22
2017-12-04T05:41:07.300Z,6.20
2017-12-04T05:42:07.338Z,6.20
2017-12-04T05:44:00.313Z,6.16
2017-12-04T05:45:00.370Z,6.11
2017-12-04T05:46:53.366Z,6.09
2017-12-04T05:47:53.404Z,6.02
2017-12-04T05:49:46.380Z,6.12
2017-12-04T05:50:46.436Z,6.11
2017-12-04T05:52:39.432Z,6.22
2017-12-04T05:53:39.467Z,6.12
2017-12-04T05:55:32.464Z,6.16
2017-12-04T05:56:32.501Z,6.11
2017-12-04T05:58:25.477Z,6.20
2017-12-04T05:59:25.533Z,6.22
2017-12-04T06:01:18.529Z,6.27
2017-12-04T06:02:18.569Z,6.26
2017-12-04T06:04:11.543Z,6.22
2017-12-04T06:05:11.600Z,6.19
2017-12-04T06:07:04.603Z,6.11
2017-12-04T06:08:04.640Z,6.09
2017-12-04T06:09:57.618Z,6.12
2017-12-04T06:10:57.676Z,6.12
2017-12-04T06:12:50.674Z,6.09
2017-12-04T06:13:50.710Z,6.11
2017-12-04T06:15:43.706Z,6.12
2017-12-04T06:16:43.741Z,6.16
2017-12-04T06:18:36.716Z,6.19
2017-12-04T06:19:36.773Z,6.14
2017-12-04T06:21:29.768Z,6.26
2017-12-04T06:22:29.813Z,6.22
2017-12-04T06:24:22.782Z,6.24
2017-12-04T06:25:22.840Z,6.28
2017-12-04T06:27:15.835Z,6.22
2017-12-04T06:28:15.871Z,6.27
2017-12-04T06:30:08.847Z,6.20
2017-12-04T06:31:08.904Z,6.26
2017-12-04T06:33:01.904Z,6.26
2017-12-04T06:34:01.939Z,6.19
2017-12-04T06:35:54.935Z,6.12
2017-12-04T06:36:54.970Z,6.24
2017-12-04T06:38:47.946Z,6.22
2017-12-04T06:39:48.002Z,6.20
2017-12-04T06:41:40.997Z,6.19
2017-12-04T06:42:41.034Z,6.27
2017-12-04T06:44:34.016Z,6.22
2017-12-04T06:45:34.068Z,6.24
2017-12-04T06:47:27.066Z,6.28
2017-12-04T06:48:27.101Z,6.26
2017-12-04T06:50:20.076Z,6.24
2017-12-04T06:51:20.136Z,6.26
2017-12-04T06:53:13.127Z,6.20
2017-12-04T06:54:13.166Z,6.20
2017-12-04T06:56:06.667Z,6.20
2017-12-04T06:57:06.705Z,6.19
2017-12-04T06:58:59.686Z,6.30
2017-12-04T06:59:59.738Z,6.22
2017-12-04T07:01:52.751Z,6.36
2017-12-04T07:02:52.771Z,6.33
2017-12-04T07:04:45.746Z,6.31
2017-12-04T07:05:45.804Z,6.28
2017-12-04T07:07:38.800Z,6.20
2017-12-04T07:08:38.836Z,6.26
2017-12-04T07:10:31.812Z,6.28
2017-12-04T07:11:31.869Z,6.24
2017-12-04T07:13:24.866Z,6.27
2017-12-04T07:14:24.902Z,6.26
2017-12-04T07:16:17.897Z,6.26
2017-12-04T07:17:17.935Z,6.28
2017-12-04T07:19:10.911Z,6.30
2017-12-04T07:20:10.966Z,6.33
2017-12-04T07:22:03.967Z,6.39
2017-12-04T07:23:04.001Z,6.48
2017-12-04T07:24:56.981Z,6.46
2017-12-04T07:25:57.040Z,6.56
2017-12-04T07:27:50.031Z,6.51
2017-12-04T07:28:50.068Z,6.57
2017-12-04T07:30:43.046Z,6.45
2017-12-04T07:31:43.182Z,6.56
2017-12-04T07:33:36.096Z,6.59
2017-12-04T07:34:36.131Z,6.54
2017-12-04T07:36:29.132Z,6.60
2017-12-04T07:37:29.225Z,6.59
2017-12-04T07:39:22.145Z,6.67
2017-12-04T07:40:22.201Z,6.64
2017-12-04T07:42:15.198Z,6.64
2017-12-04T07:43:15.232Z,6.64
2017-12-04T07:45:08.217Z,6.64
2017-12-04T07:46:08.271Z,6.66
2017-12-04T07:48:01.269Z,6.64
2017-12-04T07:49:01.305Z,6.70
2017-12-04T07:50:54.301Z,6.72
2017-12-04T07:51:54.336Z,6.75
2017-12-04T07:53:47.333Z,6.75
2017-12-04T07:54:47.383Z,6.77
2017-12-04T07:56:40.884Z,6.74
2017-12-04T07:57:40.918Z,6.72
2017-12-04T07:59:33.901Z,6.81
2017-12-04T08:00:33.967Z,6.70
2017-12-04T08:02:26.970Z,6.74
2017-12-04T08:03:27.009Z,6.79
2017-12-04T08:05:19.992Z,6.74
2017-12-04T08:06:20.045Z,6.70
2017-12-04T08:08:13.040Z,6.78
2017-12-04T08:09:13.076Z,6.77
2017-12-04T08:11:06.084Z,6.85
2017-12-04T08:12:06.113Z,6.95
2017-12-04T08:13:59.090Z,6.85
2017-12-04T08:14:59.350Z,6.87
2017-12-04T08:16:52.147Z,6.81
2017-12-04T08:17:52.181Z,6.87
2017-12-04T08:19:45.164Z,6.70
2017-12-04T08:20:45.217Z,6.84
2017-12-04T08:22:38.215Z,6.82
2017-12-04T08:23:38.251Z,6.82
2017-12-04T08:25:31.229Z,6.87
2017-12-04T08:26:31.285Z,6.84
2017-12-04T08:28:24.284Z,6.85
2017-12-04T08:29:24.321Z,6.82
2017-12-04T08:31:17.317Z,6.87
2017-12-04T08:32:17.355Z,6.81
2017-12-04T08:34:10.332Z,6.88
2017-12-04T08:35:10.387Z,6.89
2017-12-04T08:37:03.385Z,6.99
2017-12-04T08:38:03.423Z,7.00
2017-12-04T08:39:56.400Z,7.03
2017-12-04T08:40:56.456Z,7.00
2017-12-04T08:42:49.452Z,7.11
2017-12-04T08:43:49.491Z,7.11
2017-12-04T08:45:42.478Z,7.14
2017-12-04T08:46:42.527Z,7.31
2017-12-04T08:48:35.516Z,7.28
2017-12-04T08:49:35.556Z,7.29
2017-12-04T08:51:28.555Z,7.24
2017-12-04T08:52:28.592Z,7.29
2017-12-04T08:54:21.570Z,7.28
2017-12-04T08:55:21.626Z,7.35
2017-12-04T08:57:14.627Z,7.40
2017-12-04T08:58:14.664Z,7.38
2017-12-04T09:00:07.642Z,7.35
2017-12-04T09:01:07.697Z,7.42
2017-12-04T09:03:00.693Z,7.35
2017-12-04T09:04:00.730Z,7.38
2017-12-04T09:05:53.714Z,7.42
2017-12-04T09:06:53.767Z,7.42
2017-12-04T09:08:46.764Z,7.51
2017-12-04T09:09:46.799Z,7.50
2017-12-04T09:11:39.796Z,7.66
2017-12-04T09:12:39.838Z,7.76
2017-12-04T09:14:32.812Z,7.80
2017-12-04T09:15:32.867Z,7.80
2017-12-04T09:17:25.866Z,7.87
2017-12-04T09:18:25.902Z,7.95
2017-12-04T09:20:18.888Z,7.95
2017-12-04T09:21:18.938Z,7.80
2017-12-04T09:23:11.947Z,7.94
2017-12-04T09:24:11.987Z,7.82
2017-12-04T09:26:04.963Z,7.88
2017-12-04T09:27:05.022Z,7.95
2017-12-04T09:28:58.019Z,7.88
2017-12-04T09:29:58.056Z,7.94
2017-12-04T09:31:51.093Z,7.83
2017-12-04T09:32:51.093Z,7.82
2017-12-04T09:34:44.078Z,7.82
2017-12-04T09:35:44.130Z,7.73
2017-12-04T09:37:37.132Z,7.73
2017-12-04T09:38:37.170Z,7.79
2017-12-04T09:40:30.145Z,7.69
2017-12-04T09:41:30.204Z,7.70
2017-12-04T09:43:23.200Z,7.72
2017-12-04T09:44:23.238Z,7.70
2017-12-04T09:46:16.224Z,7.80
2017-12-04T09:47:16.286Z,7.85
2017-12-04T09:49:09.282Z,7.76
2017-12-04T09:50:09.318Z,7.80
2017-12-04T09:52:02.312Z,7.93
2017-12-04T09:53:02.351Z,7.85
2017-12-04T09:54:55.338Z,7.83
2017-12-04T09:55:55.389Z,7.82
2017-12-04T09:57:49.914Z,7.90
2017-12-04T09:58:49.941Z,7.88
2017-12-04T10:00:42.918Z,7.95
2017-12-04T10:01:42.971Z,7.98
2017-12-04T10:03:35.976Z,7.97
2017-12-04T10:04:36.025Z,8.00
2017-12-04T10:06:28.986Z,8.05
2017-12-04T10:07:29.042Z,7.98
2017-12-04T10:09:22.041Z,8.00
2017-12-04T10:10:22.079Z,8.03
2017-12-04T10:12:15.085Z,8.10
2017-12-04T10:13:15.123Z,8.10
2017-12-04T10:15:08.104Z,8.20
2017-12-04T10:16:08.160Z,8.24
2017-12-04T10:18:01.160Z,8.12
2017-12-04T10:19:01.200Z,8.15
2017-12-04T10:20:54.181Z,8.19
2017-12-04T10:21:54.234Z,8.23
2017-12-04T10:23:47.233Z,8.28
2017-12-04T10:24:47.270Z,8.26
2017-12-04T10:26:40.251Z,8.30
2017-12-04T10:27:40.307Z,8.24
2017-12-04T10:29:33.306Z,8.27
2017-12-04T10:30:33.344Z,8.20
2017-12-04T10:32:26.342Z,8.20
2017-12-04T10:33:26.395Z,8.28
2017-12-04T10:35:19.364Z,8.31
2017-12-04T10:36:19.424Z,8.30
2017-12-04T10:38:12.440Z,8.27
2017-12-04T10:39:12.472Z,8.28
2017-12-04T10:41:05.447Z,8.31
2017-12-04T10:42:05.505Z,8.30
2017-12-04T10:43:58.508Z,8.46
2017-12-04T10:44:58.541Z,8.42
2017-12-04T10:46:51.528Z,8.44
2017-12-04T10:47:51.587Z,8.38
2017-12-04T10:49:44.584Z,8.28
2017-12-04T10:50:44.625Z,8.33
2017-12-04T10:52:37.620Z,8.28
2017-12-04T10:53:37.658Z,8.31
2017-12-04T10:55:30.643Z,8.28
2017-12-04T10:56:30.693Z,8.26
2017-12-04T10:58:24.201Z,8.16
2017-12-04T10:59:24.288Z,8.12
2017-12-04T11:01:17.223Z,8.12
2017-12-04T11:02:17.279Z,8.06
2017-12-04T11:04:10.277Z,8.08
2017-12-04T11:05:10.314Z,8.12
2017-12-04T11:07:03.299Z,8.10
2017-12-04T11:08:03.358Z,8.08
2017-12-04T11:09:56.354Z,8.09
2017-12-04T11:10:56.397Z,8.09
2017-12-04T11:12:49.393Z,8.03
2017-12-04T11:13:49.426Z,8.15
2017-12-04T11:15:42.418Z,8.03
2017-12-04T11:16:42.478Z,8.03
2017-12-04T11:18:35.486Z,8.12
2017-12-04T11:19:35.509Z,8.15
2017-12-04T11:21:28.502Z,8.20
2017-12-04T11:22:28.557Z,8.24
2017-12-04T11:24:21.555Z,8.28
2017-12-04T11:25:21.594Z,8.26
2017-12-04T11:27:14.569Z,8.34
2017-12-04T11:28:14.627Z,8.34
2017-12-04T11:30:07.631Z,8.24
2017-12-04T11:31:07.672Z,8.46
2017-12-04T11:33:00.669Z,8.38
2017-12-04T11:34:00.707Z,8.42
2017-12-04T11:35:53.690Z,8.38
2017-12-04T11:36:53.749Z,8.28
2017-12-04T11:38:46.742Z,8.36
2017-12-04T11:39:46.781Z,8.30
2017-12-04T11:41:39.760Z,8.28
2017-12-04T11:42:39.817Z,8.26
2017-12-04T11:44:32.814Z,8.16
2017-12-04T11:45:32.851Z,8.24
2017-12-04T11:47:25.838Z,8.12
2017-12-04T11:48:25.891Z,8.18
2017-12-04T11:50:18.891Z,8.15
2017-12-04T11:51:18.928Z,8.30
2017-12-04T11:53:11.928Z,8.26
2017-12-04T11:54:11.963Z,8.20
2017-12-04T11:56:04.953Z,8.20
2017-12-04T11:57:05.000Z,8.27
2017-12-04T11:58:57.999Z,8.34
2017-12-04T11:59:58.043Z,8.33
2017-12-04T12:01:51.032Z,8.44
2017-12-04T12:02:51.074Z,8.38
2017-12-04T12:04:44.074Z,8.38
2017-12-04T12:05:44.111Z,8.42
2017-12-04T12:07:37.093Z,8.37
2017-12-04T12:08:37.147Z,8.38
2017-12-04T12:10:30.147Z,8.44
2017-12-04T12:11:30.218Z,8.52
2017-12-04T12:13:23.184Z,8.60
2017-12-04T12:14:23.219Z,8.63
2017-12-04T12:16:16.216Z,8.71
2017-12-04T12:17:16.268Z,8.74
2017-12-04T12:19:09.304Z,8.71
2017-12-04T12:20:09.311Z,8.66
2017-12-04T12:22:02.288Z,8.63
2017-12-04T12:23:02.346Z,8.64
2017-12-04T12:24:55.346Z,8.60
2017-12-04T12:25:55.382Z,8.73
2017-12-04T12:27:48.367Z,8.87
2017-12-04T12:28:48.420Z,8.89
2017-12-04T12:30:41.423Z,8.92
2017-12-04T12:31:41.460Z,8.94
2017-12-04T12:33:34.458Z,8.81
2017-12-04T12:34:34.501Z,8.81
2017-12-04T12:36:27.477Z,8.81
2017-12-04T12:37:27.534Z,8.71
2017-12-04T12:39:20.536Z,8.70
2017-12-04T12:40:20.569Z,8.69
2017-12-04T12:42:13.557Z,8.55
2017-12-04T12:43:13.606Z,8.64
2017-12-04T12:45:06.612Z,8.55
2017-12-04T12:46:06.645Z,8.60
2017-12-04T12:47:59.623Z,8.51
2017-12-04T12:48:59.682Z,8.49
2017-12-04T12:50:52.686Z,8.44
2017-12-04T12:51:52.721Z,8.51
2017-12-04T12:53:45.735Z,8.38
2017-12-04T12:54:45.757Z,8.36
2017-12-04T12:56:38.735Z,8.55
2017-12-04T12:57:38.795Z,8.61
2017-12-04T12:59:31.791Z,8.69
2017-12-04T13:00:31.829Z,8.84
2017-12-04T13:02:24.807Z,8.94
2017-12-04T13:03:24.865Z,8.89
2017-12-04T13:05:17.891Z,9.03
2017-12-04T13:06:17.906Z,9.02
2017-12-04T13:08:10.932Z,8.97
2017-12-04T13:09:10.945Z,8.85
2017-12-04T13:11:03.949Z,8.94
2017-12-04T13:12:03.986Z,8.94
2017-12-04T13:13:56.986Z,8.91
2017-12-04T13:14:57.023Z,8.94
2017-12-04T13:16:50.009Z,8.82
2017-12-04T13:17:50.065Z,8.85
2017-12-04T13:19:43.067Z,8.84
2017-12-04T13:20:43.114Z,8.87
2017-12-04T13:22:36.084Z,8.78
2017-12-04T13:23:36.168Z,8.71
2017-12-04T13:25:29.140Z,8.74
2017-12-04T13:26:29.181Z,8.67
2017-12-04T13:28:22.156Z,8.67
2017-12-04T13:29:22.223Z,8.71
2017-12-04T13:31:15.213Z,8.73
2017-12-04T13:32:15.251Z,8.78
2017-12-04T13:34:08.256Z,8.79
2017-12-04T13:35:08.287Z,8.73
2017-12-04T13:37:01.271Z,8.74
2017-12-04T13:38:01.330Z,8.67
2017-12-04T13:39:54.327Z,8.67
2017-12-04T13:40:54.367Z,8.71
2017-12-04T13:42:47.344Z,8.71
2017-12-04T13:43:47.406Z,8.76
2017-12-04T13:45:40.407Z,8.76
2017-12-04T13:46:40.456Z,8.71
2017-12-04T13:48:33.440Z,8.69
2017-12-04T13:49:33.483Z,8.64
2017-12-04T13:51:26.481Z,8.56
2017-12-04T13:52:26.517Z,8.64
2017-12-04T13:54:19.515Z,8.61
2017-12-04T13:55:19.556Z,8.56
2017-12-04T13:57:12.537Z,8.55
2017-12-04T13:58:12.592Z,8.52
2017-12-04T14:00:05.596Z,8.56
2017-12-04T14:01:05.630Z,8.60
2017-12-04T14:02:58.623Z,8.51
2017-12-04T14:03:58.678Z,8.52
2017-12-04T14:05:51.684Z,8.53
2017-12-04T14:06:51.712Z,8.51
2017-12-04T14:08:44.692Z,8.51
2017-12-04T14:09:44.751Z,8.55
2017-12-04T14:11:37.748Z,8.46
2017-12-04T14:12:37.786Z,8.49
2017-12-04T14:14:30.784Z,8.55
2017-12-04T14:15:30.822Z,8.52
2017-12-04T14:17:23.808Z,8.58
2017-12-04T14:18:23.888Z,8.53
2017-12-04T14:20:16.875Z,8.49
2017-12-04T14:21:16.912Z,8.49
2017-12-04T14:23:09.895Z,8.53
2017-12-04T14:24:09.949Z,8.41
2017-12-04T14:26:02.958Z,8.46
2017-12-04T14:27:03.132Z,8.45
2017-12-04T14:28:55.982Z,8.42
2017-12-04T14:29:56.042Z,8.48
2017-12-04T14:31:49.051Z,8.51
2017-12-04T14:32:49.088Z,8.34
2017-12-04T14:34:42.095Z,8.36
2017-12-04T14:35:42.130Z,8.34
2017-12-04T14:37:35.109Z,8.36
2017-12-04T14:38:35.167Z,8.42
2017-12-04T14:40:28.173Z,8.34
2017-12-04T14:41:28.204Z,8.26
2017-12-04T14:43:21.182Z,8.24
2017-12-04T14:44:21.240Z,8.15
2017-12-04T14:46:14.237Z,8.18
2017-12-04T14:47:14.277Z,8.13
2017-12-04T14:49:07.295Z,8.19
2017-12-04T14:50:07.352Z,8.18
2017-12-04T14:52:00.353Z,8.24
2017-12-04T14:53:00.394Z,8.28
2017-12-04T14:54:53.394Z,8.27
2017-12-04T14:55:53.430Z,8.26
2017-12-04T14:57:46.942Z,8.33
2017-12-04T14:58:46.973Z,8.30
2017-12-04T15:00:39.974Z,8.34
2017-12-04T15:01:40.011Z,8.28
2017-12-04T15:03:32.999Z,8.30
2017-12-04T15:04:33.046Z,8.31
2017-12-04T15:06:26.046Z,8.31
2017-12-04T15:07:26.083Z,8.31
2017-12-04T15:09:19.062Z,8.36
2017-12-04T15:10:19.121Z,8.34
2017-12-04T15:12:12.116Z,8.33
2017-12-04T15:13:12.155Z,8.33
2017-12-04T15:15:05.177Z,8.36
2017-12-04T15:16:05.195Z,8.27
2017-12-04T15:17:58.183Z,8.19
2017-12-04T15:18:58.234Z,8.18
2017-12-04T15:20:51.741Z,8.08
2017-12-04T15:21:51.780Z,8.05
2017-12-04T15:23:44.762Z,8.05
2017-12-04T15:24:44.822Z,8.01
2017-12-04T15:26:37.832Z,8.01
2017-12-04T15:27:37.868Z,8.09
2017-12-04T15:29:30.878Z,7.97
2017-12-04T15:30:30.913Z,8.00
2017-12-04T15:32:23.916Z,8.03
2017-12-04T15:33:23.952Z,8.01
2017-12-04T15:35:16.965Z,8.01
2017-12-04T15:36:16.990Z,7.98
2017-12-04T15:38:09.983Z,7.97
2017-12-04T15:39:10.044Z,8.01
2017-12-04T15:41:03.045Z,7.98
2017-12-04T15:42:03.080Z,7.97
2017-12-04T15:43:56.057Z,7.98
2017-12-04T15:44:56.120Z,8.03
2017-12-04T15:46:49.112Z,8.03
2017-12-04T15:47:49.150Z,8.05
2017-12-04T15:49:42.157Z,8.05
2017-12-04T15:50:42.195Z,8.10
2017-12-04T15:52:35.174Z,8.03
2017-12-04T15:53:35.242Z,8.06
2017-12-04T15:55:28.258Z,8.01
2017-12-04T15:56:28.281Z,8.03
2017-12-04T15:58:21.276Z,8.09
2017-12-04T15:59:21.322Z,8.12
2017-12-04T16:01:14.335Z,8.05
2017-12-04T16:02:14.363Z,8.15
2017-12-04T16:04:07.339Z,8.09
2017-12-04T16:05:07.402Z,8.12
2017-12-04T16:07:00.415Z,8.03
2017-12-04T16:08:00.452Z,8.03
2017-12-04T16:09:53.451Z,8.03
2017-12-04T16:10:53.549Z,8.03
2017-12-04T16:12:46.473Z,8.06
2017-12-04T16:13:46.525Z,7.97
2017-12-04T16:15:39.530Z,8.00
2017-12-04T16:16:39.571Z,8.03
2017-12-04T16:18:32.559Z,7.98
2017-12-04T16:19:32.603Z,7.98
2017-12-04T16:21:25.643Z,8.01
2017-12-04T16:22:25.646Z,7.97
2017-12-04T16:24:18.630Z,8.00
2017-12-04T16:25:18.682Z,8.01
2017-12-04T16:27:11.684Z,8.03
2017-12-04T16:28:11.720Z,8.00
2017-12-04T16:30:04.719Z,8.08
2017-12-04T16:31:04.755Z,7.98
2017-12-04T16:32:57.745Z,8.06
2017-12-04T16:33:57.799Z,8.00
2017-12-04T16:35:50.796Z,8.08
2017-12-04T16:36:50.834Z,8.08
2017-12-04T16:38:43.830Z,8.08
2017-12-04T16:39:43.932Z,8.12
2017-12-04T16:41:36.888Z,8.09
2017-12-04T16:42:36.927Z,8.10
2017-12-04T16:44:29.920Z,8.12
2017-12-04T16:45:29.962Z,8.08
2017-12-04T16:47:22.989Z,8.18
2017-12-04T16:48:23.000Z,8.16
2017-12-04T16:50:15.998Z,8.12
2017-12-04T16:51:16.036Z,8.15
2017-12-04T16:53:09.014Z,8.10
2017-12-04T16:54:09.073Z,8.12
2017-12-04T16:56:02.070Z,8.03
2017-12-04T16:57:02.108Z,8.00
2017-12-04T16:58:55.087Z,7.94
2017-12-04T16:59:55.146Z,7.93
2017-12-04T17:01:48.145Z,7.97
2017-12-04T17:02:48.184Z,7.95
2017-12-04T17:04:41.160Z,7.93
2017-12-04T17:05:41.219Z,7.98
2017-12-04T17:07:34.215Z,8.03
2017-12-04T17:08:34.252Z,8.01
2017-12-04T17:10:27.251Z,8.09
2017-12-04T17:11:27.289Z,8.08
2017-12-04T17:13:20.265Z,8.05
2017-12-04T17:14:20.324Z,8.10
2017-12-04T17:16:13.326Z,8.28
2017-12-04T17:17:13.362Z,8.16
2017-12-04T17:19:06.345Z,8.28
2017-12-04T17:20:06.399Z,8.27
2017-12-04T17:21:59.401Z,8.33
2017-12-04T17:22:59.435Z,8.31
2017-12-04T17:24:52.420Z,8.30
2017-12-04T17:25:52.472Z,8.34
2017-12-04T17:27:45.477Z,8.31
2017-12-04T17:28:45.513Z,8.31
2017-12-04T17:30:38.517Z,8.26
2017-12-04T17:31:38.550Z,8.10
2017-12-04T17:33:31.529Z,8.18
2017-12-04T17:34:31.584Z,8.12
2017-12-04T17:36:24.583Z,8.09
2017-12-04T17:37:24.620Z,8.06
2017-12-04T17:39:17.598Z,7.98
2017-12-04T17:40:17.655Z,7.94
2017-12-04T17:42:10.655Z,7.93
2017-12-04T17:43:10.692Z,7.98
2017-12-04T17:45:03.686Z,7.88
2017-12-04T17:46:03.731Z,7.83
2017-12-04T17:47:56.728Z,7.85
2017-12-04T17:48:56.772Z,7.90
2017-12-04T17:50:49.763Z,7.87
2017-12-04T17:51:49.800Z,7.83
2017-12-04T17:53:42.777Z,7.76
2017-12-04T17:54:42.837Z,7.83
2017-12-04T17:56:35.833Z,7.80
2017-12-04T17:57:35.870Z,7.94
2017-12-04T17:59:28.846Z,7.82
2017-12-04T18:00:28.904Z,7.83
2017-12-04T18:02:21.902Z,7.93
2017-12-04T18:03:21.938Z,7.85
2017-12-04T18:05:14.928Z,7.97
2017-12-04T18:06:14.984Z,7.87
2017-12-04T18:08:07.990Z,7.94
2017-12-04T18:09:08.028Z,7.91
2017-12-04T18:11:01.027Z,7.94
2017-12-04T18:12:01.065Z,8.03
2017-12-04T18:13:54.041Z,8.03
2017-12-04T18:14:54.097Z,8.06
2017-12-04T18:16:47.098Z,7.98
2017-12-04T18:17:47.137Z,7.91
2017-12-04T18:19:40.111Z,7.98
2017-12-04T18:20:40.170Z,7.90
2017-12-04T18:22:33.676Z,7.95
2017-12-04T18:23:33.718Z,7.90
2017-12-04T18:25:26.690Z,8.06
2017-12-04T18:26:26.747Z,8.01
2017-12-04T18:28:19.744Z,7.98
2017-12-04T18:29:19.781Z,7.97
2017-12-04T18:31:12.780Z,7.97
2017-12-04T18:32:12.818Z,8.01
2017-12-04T18:34:05.793Z,7.91
2017-12-04T18:35:05.851Z,7.98
2017-12-04T18:36:58.850Z,7.98
2017-12-04T18:37:58.886Z,7.98
2017-12-04T18:39:51.864Z,8.15
2017-12-04T18:40:51.924Z,8.12
2017-12-04T18:42:44.920Z,8.15
2017-12-04T18:43:44.961Z,8.10
2017-12-04T18:45:37.934Z,8.09
2017-12-04T18:46:37.994Z,8.01
2017-12-04T18:48:30.995Z,8.01
2017-12-04T18:49:31.034Z,8.12
2017-12-04T18:51:24.040Z,8.18
2017-12-04T18:52:24.077Z,8.26
2017-12-04T18:54:17.061Z,8.20
2017-12-04T18:55:17.113Z,8.23
2017-12-04T18:57:10.116Z,8.18
2017-12-04T18:58:10.150Z,8.23
2017-12-04T19:00:03.128Z,8.16
2017-12-04T19:01:03.183Z,8.20
2017-12-04T19:02:56.182Z,8.30
2017-12-04T19:03:56.218Z,8.28
2017-12-04T19:05:49.199Z,8.34
2017-12-04T19:06:49.255Z,8.31
2017-12-04T19:08:42.257Z,8.31
2017-12-04T19:09:42.299Z,8.31
2017-12-04T19:11:35.309Z,8.28